Main page
METAR-TAF:

METAR-TAF

Airports :

Fairbanks International Airport

Fairbanks, Alaska, United States

latitude: 64-48-14N, longitude: 147-52-34W, elevation: 132 m

Current weather observation

The report was made 56 minutes ago, at 23:53 UTC
Wind 9 kt from the East/Northeast
Temperature -9°C
Humidity 28%
Pressure 1023 hPa
Visibility: 16.1 km
Few clouds at a height of 10000 ft
Scattered clouds at a height of 20000 ft

METAR: PAFA 102353Z 06009KT 10SM FEW100 SCT200 M09/M24 A3022 RMK AO2 SLP250 T10941244 11089 21206 56012

Time: 16:49 (00:49 UTC)

Forecast

The report was made 1 hour and 9 minutes ago, at 23:40 UTC
Forecast valid from 11 at 00 UTC to 12 at 06 UTC
Wind 8 kt from the East/Northeast
Visibility: 10 km
Broken clouds at a height of 20000 ft
From 11 at 0800 UTC
Wind 8 kt from the Northeast
Visibility: 10 km
Scattered clouds at a height of 5000 ft
Broken clouds at a height of 10000 ft
showers in vicinity

TAF: PAFA 102340Z 1100/1206 07008KT P6SM BKN200 FM110800 05008KT P6SM VCSH SCT050 BKN100

Weather observations and forecasts of more than 4000 airports (METAR and TAF reports).

The available stations are represented by yellow and red dots on the map.

Hover mouse over dot to see the name of the station.

Then click to see weather observations and forecasts.

To change the map : click on the green buttons with a black cross to zoom in, on the green button with a dash to zoom out, or on the green arrows for adjacent maps.


METAR-TAF: